sensor_id;sensor_type;location;lat;lon;timestamp;P1;durP1;ratioP1;P2;durP2;ratioP2
31238;SDS011;17871;31.584;74.450;2023-11-18T08:39:32;49.72;;;23.38;;
31238;SDS011;17871;31.584;74.450;2023-11-18T08:42:05;41.20;;;20.48;;
31238;SDS011;17871;31.584;74.450;2023-11-18T08:44:36;41.83;;;20.23;;
31238;SDS011;17871;31.584;74.450;2023-11-18T08:47:07;34.20;;;20.05;;
31238;SDS011;17871;31.584;74.450;2023-11-18T08:49:37;47.20;;;21.52;;
31238;SDS011;17871;31.584;74.450;2023-11-18T08:52:09;39.60;;;19.75;;
31238;SDS011;17871;31.584;74.450;2023-11-18T08:54:41;42.45;;;19.65;;
31238;SDS011;17871;31.584;74.450;2023-11-18T08:57:30;47.60;;;20.75;;
31238;SDS011;17871;31.584;74.450;2023-11-18T09:00:17;45.08;;;21.75;;
31238;SDS011;17871;31.584;74.450;2023-11-18T09:03:06;37.90;;;19.50;;
31238;SDS011;17871;31.584;74.450;2023-11-18T09:05:36;52.55;;;24.10;;
31238;SDS011;17871;31.584;74.450;2023-11-18T09:08:05;52.70;;;23.52;;
31238;SDS011;17871;31.584;74.450;2023-11-18T09:10:34;54.40;;;23.40;;
31238;SDS011;17871;31.584;74.450;2023-11-18T09:13:03;51.10;;;25.83;;
31238;SDS011;17871;31.584;74.450;2023-11-18T09:15:34;58.15;;;28.45;;
31238;SDS011;17871;31.584;74.450;2023-11-18T09:18:05;52.85;;;27.05;;
31238;SDS011;17871;31.584;74.450;2023-11-18T09:20:41;183.73;;;34.10;;
31238;SDS011;17871;31.584;74.450;2023-11-18T09:23:10;65.63;;;27.23;;
31238;SDS011;17871;31.584;74.450;2023-11-18T09:25:39;60.08;;;28.60;;
31238;SDS011;17871;31.584;74.450;2023-11-18T09:28:09;50.92;;;28.75;;
31238;SDS011;17871;31.584;74.450;2023-11-18T09:30:39;58.83;;;27.33;;
31238;SDS011;17871;31.584;74.450;2023-11-18T09:33:18;62.33;;;26.77;;
31238;SDS011;17871;31.584;74.450;2023-11-18T09:36:17;56.60;;;28.55;;
31238;SDS011;17871;31.584;74.450;2023-11-18T09:38:47;67.28;;;29.38;;
31238;SDS011;17871;31.584;74.450;2023-11-18T09:41:16;64.28;;;29.92;;
31238;SDS011;17871;31.584;74.450;2023-11-18T09:43:46;64.55;;;31.05;;
31238;SDS011;17871;31.584;74.450;2023-11-18T09:46:20;58.28;;;28.27;;
31238;SDS011;17871;31.584;74.450;2023-11-18T09:48:53;53.38;;;24.13;;
31238;SDS011;17871;31.584;74.450;2023-11-18T09:51:33;45.85;;;22.63;;
31238;SDS011;17871;31.584;74.450;2023-11-18T09:54:17;38.75;;;20.02;;
31238;SDS011;17871;31.584;74.450;2023-11-18T10:00:11;49.17;;;21.50;;
31238;SDS011;17871;31.584;74.450;2023-11-18T10:02:15;38.83;;;21.70;;
31238;SDS011;17871;31.584;74.450;2023-11-18T10:07:18;88.32;;;26.48;;
31238;SDS011;17871;31.584;74.450;2023-11-18T10:09:48;80.65;;;26.10;;
31238;SDS011;17871;31.584;74.450;2023-11-18T10:12:18;61.85;;;23.00;;
31238;SDS011;17871;31.584;74.450;2023-11-18T10:14:52;46.70;;;22.58;;
31238;SDS011;17871;31.584;74.450;2023-11-18T10:17:23;42.70;;;21.58;;
31238;SDS011;17871;31.584;74.450;2023-11-18T10:19:58;44.97;;;21.13;;
31238;SDS011;17871;31.584;74.450;2023-11-18T10:22:41;44.83;;;22.70;;
31238;SDS011;17871;31.584;74.450;2023-11-18T10:25:10;50.30;;;24.15;;
31238;SDS011;17871;31.584;74.450;2023-11-18T10:27:42;43.17;;;22.90;;
31238;SDS011;17871;31.584;74.450;2023-11-18T10:30:14;65.55;;;25.45;;
31238;SDS011;17871;31.584;74.450;2023-11-18T10:32:59;46.05;;;23.23;;
31238;SDS011;17871;31.584;74.450;2023-11-18T10:35:38;51.08;;;25.48;;
31238;SDS011;17871;31.584;74.450;2023-11-18T10:38:09;56.67;;;27.33;;
31238;SDS011;17871;31.584;74.450;2023-11-18T10:40:40;48.50;;;25.33;;
31238;SDS011;17871;31.584;74.450;2023-11-18T10:43:10;70.30;;;27.52;;
31238;SDS011;17871;31.584;74.450;2023-11-18T10:45:39;55.95;;;26.23;;
31238;SDS011;17871;31.584;74.450;2023-11-18T10:50:45;55.92;;;25.15;;
31238;SDS011;17871;31.584;74.450;2023-11-18T10:53:14;60.60;;;24.65;;
31238;SDS011;17871;31.584;74.450;2023-11-18T10:55:44;48.97;;;24.27;;
31238;SDS011;17871;31.584;74.450;2023-11-18T10:58:13;54.72;;;24.60;;
31238;SDS011;17871;31.584;74.450;2023-11-18T11:00:49;52.35;;;24.08;;
31238;SDS011;17871;31.584;74.450;2023-11-18T11:03:22;45.17;;;23.45;;
31238;SDS011;17871;31.584;74.450;2023-11-18T11:08:23;54.17;;;25.10;;
31238;SDS011;17871;31.584;74.450;2023-11-18T11:11:08;46.67;;;24.48;;
31238;SDS011;17871;31.584;74.450;2023-11-18T11:13:38;52.85;;;26.70;;
31238;SDS011;17871;31.584;74.450;2023-11-18T11:16:10;55.20;;;25.87;;
31238;SDS011;17871;31.584;74.450;2023-11-18T11:18:41;76.85;;;28.13;;
31238;SDS011;17871;31.584;74.450;2023-11-18T11:21:15;66.38;;;26.83;;
31238;SDS011;17871;31.584;74.450;2023-11-18T11:31:40;61.88;;;30.73;;
31238;SDS011;17871;31.584;74.450;2023-11-18T11:34:17;62.70;;;28.70;;
31238;SDS011;17871;31.584;74.450;2023-11-18T11:36:49;77.82;;;31.42;;
31238;SDS011;17871;31.584;74.450;2023-11-18T11:39:20;85.03;;;32.97;;
31238;SDS011;17871;31.584;74.450;2023-11-18T11:41:58;63.35;;;30.23;;
31238;SDS011;17871;31.584;74.450;2023-11-18T11:44:28;71.32;;;31.10;;
31238;SDS011;17871;31.584;74.450;2023-11-18T11:46:59;61.67;;;31.88;;
31238;SDS011;17871;31.584;74.450;2023-11-18T11:49:39;69.70;;;31.23;;
31238;SDS011;17871;31.584;74.450;2023-11-18T11:52:26;89.18;;;30.67;;
31238;SDS011;17871;31.584;74.450;2023-11-18T11:57:31;102.13;;;33.67;;
31238;SDS011;17871;31.584;74.450;2023-11-18T12:00:10;75.43;;;32.90;;
31238;SDS011;17871;31.584;74.450;2023-11-18T12:02:49;75.45;;;33.20;;
31238;SDS011;17871;31.584;74.450;2023-11-18T12:05:19;86.15;;;35.30;;
31238;SDS011;17871;31.584;74.450;2023-11-18T12:07:53;94.65;;;35.88;;
31238;SDS011;17871;31.584;74.450;2023-11-18T12:10:30;92.95;;;36.92;;
31238;SDS011;17871;31.584;74.450;2023-11-18T12:13:12;101.68;;;39.42;;
31238;SDS011;17871;31.584;74.450;2023-11-18T12:15:55;119.30;;;45.60;;
31238;SDS011;17871;31.584;74.450;2023-11-18T12:18:32;126.28;;;47.53;;
31238;SDS011;17871;31.584;74.450;2023-11-18T12:21:05;129.63;;;45.97;;
31238;SDS011;17871;31.584;74.450;2023-11-18T12:23:40;109.57;;;45.30;;
31238;SDS011;17871;31.584;74.450;2023-11-18T12:26:38;126.95;;;46.78;;
31238;SDS011;17871;31.584;74.450;2023-11-18T12:29:31;115.22;;;47.45;;
31238;SDS011;17871;31.584;74.450;2023-11-18T12:32:05;131.38;;;46.67;;
31238;SDS011;17871;31.584;74.450;2023-11-18T12:34:53;128.63;;;50.78;;
31238;SDS011;17871;31.584;74.450;2023-11-18T12:45:41;154.40;;;54.50;;
31238;SDS011;17871;31.584;74.450;2023-11-18T12:48:14;154.55;;;60.45;;
31238;SDS011;17871;31.584;74.450;2023-11-18T12:50:43;157.85;;;59.30;;
31238;SDS011;17871;31.584;74.450;2023-11-18T12:53:14;149.68;;;55.63;;
31238;SDS011;17871;31.584;74.450;2023-11-18T12:58:17;167.35;;;59.70;;
31238;SDS011;17871;31.584;74.450;2023-11-18T13:00:46;185.80;;;64.05;;
31238;SDS011;17871;31.584;74.450;2023-11-18T13:03:16;183.07;;;72.30;;
31238;SDS011;17871;31.584;74.450;2023-11-18T13:05:46;182.23;;;70.75;;
31238;SDS011;17871;31.584;74.450;2023-11-18T13:08:17;214.23;;;75.18;;
31238;SDS011;17871;31.584;74.450;2023-11-18T13:10:51;193.93;;;75.10;;
31238;SDS011;17871;31.584;74.450;2023-11-18T13:13:21;197.27;;;77.30;;
31238;SDS011;17871;31.584;74.450;2023-11-18T13:15:51;208.90;;;82.65;;
31238;SDS011;17871;31.584;74.450;2023-11-18T13:18:21;222.05;;;80.35;;
31238;SDS011;17871;31.584;74.450;2023-11-18T13:20:55;207.77;;;80.43;;
31238;SDS011;17871;31.584;74.450;2023-11-18T13:23:26;182.95;;;77.75;;
31238;SDS011;17871;31.584;74.450;2023-11-18T13:25:56;183.38;;;78.45;;
31238;SDS011;17871;31.584;74.450;2023-11-18T13:28:29;202.55;;;75.53;;
31238;SDS011;17871;31.584;74.450;2023-11-18T13:30:58;200.48;;;81.28;;
31238;SDS011;17871;31.584;74.450;2023-11-18T13:33:27;207.13;;;81.55;;
31238;SDS011;17871;31.584;74.450;2023-11-18T13:35:57;198.63;;;82.57;;
31238;SDS011;17871;31.584;74.450;2023-11-18T13:38:27;188.68;;;80.95;;
31238;SDS011;17871;31.584;74.450;2023-11-18T13:40:58;227.05;;;85.00;;
31238;SDS011;17871;31.584;74.450;2023-11-18T13:43:41;230.95;;;85.18;;
31238;SDS011;17871;31.584;74.450;2023-11-18T13:46:11;194.50;;;79.60;;
31238;SDS011;17871;31.584;74.450;2023-11-18T13:48:46;212.13;;;86.10;;
31238;SDS011;17871;31.584;74.450;2023-11-18T13:51:18;198.00;;;83.60;;
31238;SDS011;17871;31.584;74.450;2023-11-18T13:53:48;237.07;;;90.30;;
31238;SDS011;17871;31.584;74.450;2023-11-18T13:56:18;247.98;;;87.78;;
31238;SDS011;17871;31.584;74.450;2023-11-18T13:58:48;189.75;;;85.80;;
31238;SDS011;17871;31.584;74.450;2023-11-18T14:01:20;199.50;;;86.22;;
31238;SDS011;17871;31.584;74.450;2023-11-18T14:03:50;192.43;;;86.35;;
31238;SDS011;17871;31.584;74.450;2023-11-18T14:06:21;203.18;;;85.43;;
31238;SDS011;17871;31.584;74.450;2023-11-18T14:08:51;189.35;;;82.70;;
31238;SDS011;17871;31.584;74.450;2023-11-18T14:11:21;216.27;;;84.95;;
31238;SDS011;17871;31.584;74.450;2023-11-18T14:13:50;194.00;;;85.97;;
31238;SDS011;17871;31.584;74.450;2023-11-18T14:16:22;215.32;;;86.03;;
31238;SDS011;17871;31.584;74.450;2023-11-18T14:18:52;235.52;;;92.28;;
31238;SDS011;17871;31.584;74.450;2023-11-18T14:21:21;225.35;;;96.10;;
31238;SDS011;17871;31.584;74.450;2023-11-18T14:23:51;245.20;;;100.78;;
31238;SDS011;17871;31.584;74.450;2023-11-18T14:26:24;250.48;;;104.30;;
31238;SDS011;17871;31.584;74.450;2023-11-18T14:28:56;254.65;;;101.18;;
31238;SDS011;17871;31.584;74.450;2023-11-18T14:31:27;243.50;;;96.23;;
31238;SDS011;17871;31.584;74.450;2023-11-18T14:33:57;232.85;;;98.25;;
31238;SDS011;17871;31.584;74.450;2023-11-18T14:36:27;238.05;;;97.20;;
31238;SDS011;17871;31.584;74.450;2023-11-18T14:38:57;249.65;;;98.13;;
31238;SDS011;17871;31.584;74.450;2023-11-18T14:41:31;235.45;;;95.22;;
31238;SDS011;17871;31.584;74.450;2023-11-18T14:44:02;220.45;;;100.30;;
31238;SDS011;17871;31.584;74.450;2023-11-18T14:46:33;226.68;;;97.25;;
31238;SDS011;17871;31.584;74.450;2023-11-18T14:49:05;239.55;;;95.15;;
31238;SDS011;17871;31.584;74.450;2023-11-18T14:51:35;217.95;;;88.07;;
31238;SDS011;17871;31.584;74.450;2023-11-18T14:54:04;213.00;;;90.55;;
31238;SDS011;17871;31.584;74.450;2023-11-18T14:59:06;234.73;;;87.97;;
31238;SDS011;17871;31.584;74.450;2023-11-18T15:01:36;185.55;;;86.28;;
31238;SDS011;17871;31.584;74.450;2023-11-18T15:04:06;203.90;;;86.18;;
31238;SDS011;17871;31.584;74.450;2023-11-18T15:06:35;199.02;;;87.93;;
31238;SDS011;17871;31.584;74.450;2023-11-18T15:09:06;192.18;;;85.85;;
31238;SDS011;17871;31.584;74.450;2023-11-18T15:11:43;202.93;;;85.65;;
31238;SDS011;17871;31.584;74.450;2023-11-18T15:14:12;208.90;;;87.10;;
31238;SDS011;17871;31.584;74.450;2023-11-18T15:16:42;218.68;;;88.03;;
31238;SDS011;17871;31.584;74.450;2023-11-18T15:19:12;205.65;;;94.40;;
31238;SDS011;17871;31.584;74.450;2023-11-18T15:21:41;219.35;;;91.72;;
31238;SDS011;17871;31.584;74.450;2023-11-18T15:24:11;226.52;;;96.72;;
31238;SDS011;17871;31.584;74.450;2023-11-18T15:26:43;221.38;;;93.88;;
31238;SDS011;17871;31.584;74.450;2023-11-18T15:29:16;202.00;;;93.72;;
31238;SDS011;17871;31.584;74.450;2023-11-18T15:31:45;239.48;;;98.90;;
31238;SDS011;17871;31.584;74.450;2023-11-18T15:34:15;270.05;;;105.45;;
31238;SDS011;17871;31.584;74.450;2023-11-18T15:36:44;237.18;;;99.68;;
31238;SDS011;17871;31.584;74.450;2023-11-18T15:39:15;233.45;;;106.97;;
31238;SDS011;17871;31.584;74.450;2023-11-18T15:41:45;247.45;;;109.07;;
31238;SDS011;17871;31.584;74.450;2023-11-18T15:44:14;240.73;;;106.90;;
31238;SDS011;17871;31.584;74.450;2023-11-18T15:46:49;252.47;;;109.30;;
31238;SDS011;17871;31.584;74.450;2023-11-18T15:51:49;277.85;;;114.38;;
31238;SDS011;17871;31.584;74.450;2023-11-18T15:54:18;270.40;;;112.03;;
31238;SDS011;17871;31.584;74.450;2023-11-18T15:56:47;285.13;;;113.80;;
31238;SDS011;17871;31.584;74.450;2023-11-18T15:59:17;276.00;;;111.00;;
31238;SDS011;17871;31.584;74.450;2023-11-18T16:01:46;241.70;;;105.53;;
31238;SDS011;17871;31.584;74.450;2023-11-18T16:04:16;241.63;;;104.90;;
31238;SDS011;17871;31.584;74.450;2023-11-18T16:06:47;241.90;;;99.88;;
31238;SDS011;17871;31.584;74.450;2023-11-18T16:09:16;235.25;;;96.57;;
31238;SDS011;17871;31.584;74.450;2023-11-18T16:11:46;227.55;;;95.50;;
31238;SDS011;17871;31.584;74.450;2023-11-18T16:14:17;221.15;;;96.15;;
31238;SDS011;17871;31.584;74.450;2023-11-18T16:16:50;255.60;;;97.57;;
31238;SDS011;17871;31.584;74.450;2023-11-18T16:19:19;238.23;;;101.65;;
31238;SDS011;17871;31.584;74.450;2023-11-18T16:21:50;229.13;;;101.25;;
31238;SDS011;17871;31.584;74.450;2023-11-18T16:24:22;238.07;;;101.80;;
31238;SDS011;17871;31.584;74.450;2023-11-18T16:26:51;232.00;;;101.05;;
31238;SDS011;17871;31.584;74.450;2023-11-18T16:29:21;243.98;;;99.18;;
31238;SDS011;17871;31.584;74.450;2023-11-18T16:31:50;237.13;;;100.13;;
31238;SDS011;17871;31.584;74.450;2023-11-18T16:34:20;229.77;;;96.97;;
31238;SDS011;17871;31.584;74.450;2023-11-18T16:36:51;194.73;;;86.30;;
31238;SDS011;17871;31.584;74.450;2023-11-18T16:39:25;199.70;;;82.28;;
31238;SDS011;17871;31.584;74.450;2023-11-18T16:41:55;177.45;;;79.47;;
31238;SDS011;17871;31.584;74.450;2023-11-18T16:44:24;189.88;;;79.65;;
31238;SDS011;17871;31.584;74.450;2023-11-18T16:46:54;183.63;;;78.38;;
31238;SDS011;17871;31.584;74.450;2023-11-18T16:49:25;183.20;;;85.30;;
31238;SDS011;17871;31.584;74.450;2023-11-18T16:51:55;187.10;;;83.32;;
31238;SDS011;17871;31.584;74.450;2023-11-18T16:54:29;169.85;;;80.47;;
31238;SDS011;17871;31.584;74.450;2023-11-18T16:57:07;193.80;;;87.22;;
31238;SDS011;17871;31.584;74.450;2023-11-18T16:59:37;201.18;;;89.00;;
31238;SDS011;17871;31.584;74.450;2023-11-18T17:02:07;226.00;;;94.18;;
31238;SDS011;17871;31.584;74.450;2023-11-18T17:04:38;243.25;;;103.00;;
31238;SDS011;17871;31.584;74.450;2023-11-18T17:07:09;237.48;;;103.47;;
31238;SDS011;17871;31.584;74.450;2023-11-18T17:09:39;270.38;;;102.30;;
31238;SDS011;17871;31.584;74.450;2023-11-18T17:12:10;282.42;;;110.80;;
31238;SDS011;17871;31.584;74.450;2023-11-18T17:14:40;281.30;;;109.13;;
31238;SDS011;17871;31.584;74.450;2023-11-18T17:17:09;266.95;;;112.13;;
31238;SDS011;17871;31.584;74.450;2023-11-18T17:19:40;248.73;;;108.10;;
31238;SDS011;17871;31.584;74.450;2023-11-18T17:22:11;272.25;;;111.53;;
31238;SDS011;17871;31.584;74.450;2023-11-18T17:24:41;251.63;;;109.45;;
31238;SDS011;17871;31.584;74.450;2023-11-18T17:27:11;276.58;;;106.80;;
31238;SDS011;17871;31.584;74.450;2023-11-18T17:29:42;269.83;;;107.97;;
31238;SDS011;17871;31.584;74.450;2023-11-18T17:32:12;273.10;;;109.10;;
31238;SDS011;17871;31.584;74.450;2023-11-18T17:34:42;254.98;;;108.15;;
31238;SDS011;17871;31.584;74.450;2023-11-18T17:37:11;268.40;;;124.07;;
31238;SDS011;17871;31.584;74.450;2023-11-18T17:39:40;324.40;;;139.98;;
31238;SDS011;17871;31.584;74.450;2023-11-18T17:42:10;331.95;;;151.45;;
31238;SDS011;17871;31.584;74.450;2023-11-18T17:44:40;273.20;;;121.05;;
31238;SDS011;17871;31.584;74.450;2023-11-18T17:47:09;278.80;;;118.63;;
31238;SDS011;17871;31.584;74.450;2023-11-18T17:49:39;275.52;;;112.78;;
31238;SDS011;17871;31.584;74.450;2023-11-18T17:52:08;264.15;;;113.53;;
31238;SDS011;17871;31.584;74.450;2023-11-18T17:54:38;297.52;;;112.63;;
31238;SDS011;17871;31.584;74.450;2023-11-18T17:57:10;245.88;;;109.80;;
31238;SDS011;17871;31.584;74.450;2023-11-18T17:59:39;262.50;;;111.32;;
31238;SDS011;17871;31.584;74.450;2023-11-18T18:02:09;269.38;;;111.63;;
31238;SDS011;17871;31.584;74.450;2023-11-18T18:04:40;262.77;;;114.18;;
31238;SDS011;17871;31.584;74.450;2023-11-18T18:07:10;267.33;;;114.88;;
31238;SDS011;17871;31.584;74.450;2023-11-18T18:09:40;273.17;;;120.50;;
31238;SDS011;17871;31.584;74.450;2023-11-18T18:12:09;292.63;;;124.97;;
31238;SDS011;17871;31.584;74.450;2023-11-18T18:14:39;289.67;;;121.95;;
31238;SDS011;17871;31.584;74.450;2023-11-18T18:17:08;305.35;;;129.57;;
31238;SDS011;17871;31.584;74.450;2023-11-18T18:19:38;289.58;;;124.63;;
31238;SDS011;17871;31.584;74.450;2023-11-18T18:22:07;283.20;;;120.68;;
31238;SDS011;17871;31.584;74.450;2023-11-18T18:24:39;294.35;;;122.55;;
31238;SDS011;17871;31.584;74.450;2023-11-18T18:27:08;275.58;;;118.70;;
31238;SDS011;17871;31.584;74.450;2023-11-18T18:29:37;274.48;;;121.00;;
31238;SDS011;17871;31.584;74.450;2023-11-18T18:32:07;280.33;;;119.53;;
31238;SDS011;17871;31.584;74.450;2023-11-18T18:34:38;282.90;;;123.50;;
31238;SDS011;17871;31.584;74.450;2023-11-18T18:37:08;271.70;;;123.53;;
31238;SDS011;17871;31.584;74.450;2023-11-18T18:39:37;284.35;;;126.00;;
31238;SDS011;17871;31.584;74.450;2023-11-18T18:42:07;290.48;;;129.40;;
31238;SDS011;17871;31.584;74.450;2023-11-18T18:44:36;310.23;;;131.85;;
31238;SDS011;17871;31.584;74.450;2023-11-18T18:47:06;296.10;;;130.07;;
31238;SDS011;17871;31.584;74.450;2023-11-18T18:49:37;293.05;;;126.80;;
31238;SDS011;17871;31.584;74.450;2023-11-18T18:52:07;302.73;;;130.50;;
31238;SDS011;17871;31.584;74.450;2023-11-18T18:54:36;286.70;;;126.18;;
31238;SDS011;17871;31.584;74.450;2023-11-18T18:57:06;282.38;;;120.60;;
31238;SDS011;17871;31.584;74.450;2023-11-18T18:59:36;276.95;;;119.95;;
31238;SDS011;17871;31.584;74.450;2023-11-18T19:02:06;246.65;;;113.65;;
31238;SDS011;17871;31.584;74.450;2023-11-18T19:04:37;274.52;;;115.70;;
31238;SDS011;17871;31.584;74.450;2023-11-18T19:07:06;259.88;;;113.97;;
31238;SDS011;17871;31.584;74.450;2023-11-18T19:09:36;258.50;;;118.82;;
31238;SDS011;17871;31.584;74.450;2023-11-18T19:12:06;282.95;;;119.47;;
31238;SDS011;17871;31.584;74.450;2023-11-18T19:14:37;279.60;;;121.93;;
31238;SDS011;17871;31.584;74.450;2023-11-18T19:17:06;275.23;;;121.07;;
31238;SDS011;17871;31.584;74.450;2023-11-18T19:19:35;293.90;;;126.43;;
31238;SDS011;17871;31.584;74.450;2023-11-18T19:22:05;286.75;;;127.88;;
31238;SDS011;17871;31.584;74.450;2023-11-18T19:24:40;286.30;;;128.38;;
31238;SDS011;17871;31.584;74.450;2023-11-18T19:27:17;280.75;;;123.95;;
31238;SDS011;17871;31.584;74.450;2023-11-18T19:29:47;288.27;;;130.57;;
31238;SDS011;17871;31.584;74.450;2023-11-18T19:32:20;289.33;;;129.13;;
31238;SDS011;17871;31.584;74.450;2023-11-18T19:34:50;286.17;;;129.00;;
31238;SDS011;17871;31.584;74.450;2023-11-18T19:37:20;309.10;;;127.82;;
31238;SDS011;17871;31.584;74.450;2023-11-18T19:39:50;282.20;;;120.97;;
31238;SDS011;17871;31.584;74.450;2023-11-18T19:42:21;259.63;;;114.95;;
31238;SDS011;17871;31.584;74.450;2023-11-18T19:44:52;229.65;;;107.35;;
31238;SDS011;17871;31.584;74.450;2023-11-18T19:47:22;230.88;;;103.43;;
31238;SDS011;17871;31.584;74.450;2023-11-18T19:49:52;235.73;;;102.57;;
31238;SDS011;17871;31.584;74.450;2023-11-18T19:52:23;241.93;;;100.25;;
31238;SDS011;17871;31.584;74.450;2023-11-18T19:54:53;231.93;;;101.63;;
31238;SDS011;17871;31.584;74.450;2023-11-18T19:57:22;229.43;;;101.53;;
31238;SDS011;17871;31.584;74.450;2023-11-18T19:59:52;237.68;;;101.57;;
31238;SDS011;17871;31.584;74.450;2023-11-18T20:02:22;201.07;;;98.63;;
31238;SDS011;17871;31.584;74.450;2023-11-18T20:04:55;235.70;;;101.18;;
31238;SDS011;17871;31.584;74.450;2023-11-18T20:07:27;227.68;;;106.07;;
31238;SDS011;17871;31.584;74.450;2023-11-18T20:09:57;226.35;;;109.68;;
31238;SDS011;17871;31.584;74.450;2023-11-18T20:12:27;249.43;;;107.18;;
31238;SDS011;17871;31.584;74.450;2023-11-18T20:15:00;237.82;;;105.95;;
31238;SDS011;17871;31.584;74.450;2023-11-18T20:17:30;229.20;;;106.65;;
31238;SDS011;17871;31.584;74.450;2023-11-18T20:20:01;222.05;;;105.38;;
31238;SDS011;17871;31.584;74.450;2023-11-18T20:22:35;239.68;;;108.80;;
31238;SDS011;17871;31.584;74.450;2023-11-18T20:25:06;248.05;;;109.97;;
31238;SDS011;17871;31.584;74.450;2023-11-18T20:27:37;257.30;;;111.00;;
31238;SDS011;17871;31.584;74.450;2023-11-18T20:30:09;240.85;;;103.55;;
31238;SDS011;17871;31.584;74.450;2023-11-18T20:32:40;227.50;;;108.90;;
31238;SDS011;17871;31.584;74.450;2023-11-18T20:35:11;252.32;;;112.43;;
31238;SDS011;17871;31.584;74.450;2023-11-18T20:37:41;258.52;;;114.15;;
31238;SDS011;17871;31.584;74.450;2023-11-18T20:40:17;239.13;;;113.28;;
31238;SDS011;17871;31.584;74.450;2023-11-18T20:42:50;258.65;;;114.13;;
31238;SDS011;17871;31.584;74.450;2023-11-18T20:45:21;291.65;;;121.53;;
31238;SDS011;17871;31.584;74.450;2023-11-18T20:47:52;279.98;;;122.15;;
31238;SDS011;17871;31.584;74.450;2023-11-18T20:50:22;262.52;;;121.13;;
31238;SDS011;17871;31.584;74.450;2023-11-18T20:52:54;274.57;;;121.17;;
31238;SDS011;17871;31.584;74.450;2023-11-18T20:55:25;267.15;;;122.63;;
31238;SDS011;17871;31.584;74.450;2023-11-18T20:57:55;275.70;;;121.25;;
31238;SDS011;17871;31.584;74.450;2023-11-18T21:00:24;297.98;;;130.00;;
31238;SDS011;17871;31.584;74.450;2023-11-18T21:02:54;317.35;;;135.27;;
31238;SDS011;17871;31.584;74.450;2023-11-18T21:05:24;298.33;;;135.82;;
31238;SDS011;17871;31.584;74.450;2023-11-18T21:07:55;298.25;;;137.25;;
31238;SDS011;17871;31.584;74.450;2023-11-18T21:10:27;312.83;;;143.07;;
31238;SDS011;17871;31.584;74.450;2023-11-18T21:12:58;325.98;;;137.48;;
31238;SDS011;17871;31.584;74.450;2023-11-18T21:15:28;336.50;;;140.50;;
31238;SDS011;17871;31.584;74.450;2023-11-18T21:17:59;329.98;;;140.10;;
31238;SDS011;17871;31.584;74.450;2023-11-18T21:20:29;330.98;;;140.95;;
31238;SDS011;17871;31.584;74.450;2023-11-18T21:22:59;317.30;;;142.07;;
31238;SDS011;17871;31.584;74.450;2023-11-18T21:25:29;316.98;;;140.68;;
31238;SDS011;17871;31.584;74.450;2023-11-18T21:28:00;306.63;;;139.50;;
31238;SDS011;17871;31.584;74.450;2023-11-18T21:30:33;306.08;;;138.43;;
31238;SDS011;17871;31.584;74.450;2023-11-18T21:33:03;305.23;;;137.80;;
31238;SDS011;17871;31.584;74.450;2023-11-18T21:35:36;300.40;;;135.95;;
31238;SDS011;17871;31.584;74.450;2023-11-18T21:38:09;316.65;;;137.80;;
31238;SDS011;17871;31.584;74.450;2023-11-18T21:40:39;306.08;;;135.05;;
31238;SDS011;17871;31.584;74.450;2023-11-18T21:43:09;314.60;;;136.40;;
31238;SDS011;17871;31.584;74.450;2023-11-18T21:45:38;308.50;;;136.10;;
31238;SDS011;17871;31.584;74.450;2023-11-18T21:48:08;312.23;;;141.10;;
31238;SDS011;17871;31.584;74.450;2023-11-18T21:50:41;294.33;;;137.20;;
31238;SDS011;17871;31.584;74.450;2023-11-18T21:53:11;308.67;;;140.07;;
31238;SDS011;17871;31.584;74.450;2023-11-18T21:55:41;301.13;;;135.90;;
31238;SDS011;17871;31.584;74.450;2023-11-18T21:58:14;300.27;;;141.13;;
31238;SDS011;17871;31.584;74.450;2023-11-18T22:00:43;313.90;;;138.75;;
31238;SDS011;17871;31.584;74.450;2023-11-18T22:03:13;314.92;;;141.95;;
31238;SDS011;17871;31.584;74.450;2023-11-18T22:05:42;322.73;;;143.30;;
31238;SDS011;17871;31.584;74.450;2023-11-18T22:08:13;347.20;;;150.63;;
31238;SDS011;17871;31.584;74.450;2023-11-18T22:10:47;322.48;;;146.32;;
31238;SDS011;17871;31.584;74.450;2023-11-18T22:13:17;365.90;;;159.90;;
31238;SDS011;17871;31.584;74.450;2023-11-18T22:15:46;363.88;;;169.10;;
31238;SDS011;17871;31.584;74.450;2023-11-18T22:18:16;431.33;;;187.63;;
31238;SDS011;17871;31.584;74.450;2023-11-18T22:20:45;391.95;;;182.32;;
31238;SDS011;17871;31.584;74.450;2023-11-18T22:23:14;450.13;;;205.18;;
31238;SDS011;17871;31.584;74.450;2023-11-18T22:25:44;470.70;;;220.75;;
31238;SDS011;17871;31.584;74.450;2023-11-18T22:28:17;453.98;;;219.77;;
31238;SDS011;17871;31.584;74.450;2023-11-18T22:30:46;489.30;;;228.52;;
31238;SDS011;17871;31.584;74.450;2023-11-18T22:33:16;463.20;;;223.65;;
31238;SDS011;17871;31.584;74.450;2023-11-18T22:35:52;471.20;;;220.77;;
31238;SDS011;17871;31.584;74.450;2023-11-18T22:38:22;484.85;;;218.48;;
31238;SDS011;17871;31.584;74.450;2023-11-18T22:40:52;462.45;;;217.30;;
31238;SDS011;17871;31.584;74.450;2023-11-18T22:43:21;460.75;;;212.27;;
31238;SDS011;17871;31.584;74.450;2023-11-18T22:45:50;465.27;;;208.30;;
31238;SDS011;17871;31.584;74.450;2023-11-18T22:48:20;426.63;;;182.07;;
31238;SDS011;17871;31.584;74.450;2023-11-18T22:50:49;364.95;;;166.32;;
31238;SDS011;17871;31.584;74.450;2023-11-18T22:53:19;368.83;;;164.00;;
31238;SDS011;17871;31.584;74.450;2023-11-18T22:55:48;367.15;;;160.80;;
31238;SDS011;17871;31.584;74.450;2023-11-18T22:58:19;387.42;;;157.73;;
31238;SDS011;17871;31.584;74.450;2023-11-18T23:00:49;365.23;;;164.85;;
31238;SDS011;17871;31.584;74.450;2023-11-18T23:03:23;380.75;;;172.68;;
31238;SDS011;17871;31.584;74.450;2023-11-18T23:05:54;387.98;;;172.77;;
31238;SDS011;17871;31.584;74.450;2023-11-18T23:08:36;373.40;;;168.80;;
31238;SDS011;17871;31.584;74.450;2023-11-18T23:11:05;415.63;;;180.52;;
31238;SDS011;17871;31.584;74.450;2023-11-18T23:13:35;401.67;;;174.88;;
31238;SDS011;17871;31.584;74.450;2023-11-18T23:16:04;406.27;;;185.90;;
31238;SDS011;17871;31.584;74.450;2023-11-18T23:18:40;408.42;;;186.88;;
31238;SDS011;17871;31.584;74.450;2023-11-18T23:21:10;424.48;;;191.23;;
31238;SDS011;17871;31.584;74.450;2023-11-18T23:23:39;425.02;;;191.77;;
31238;SDS011;17871;31.584;74.450;2023-11-18T23:26:11;402.05;;;188.35;;
31238;SDS011;17871;31.584;74.450;2023-11-18T23:28:40;389.02;;;186.45;;
31238;SDS011;17871;31.584;74.450;2023-11-18T23:31:10;417.35;;;196.63;;
31238;SDS011;17871;31.584;74.450;2023-11-18T23:33:46;415.02;;;194.30;;